sensor_id;sensor_type;location;lat;lon;timestamp;temperature;humidity
12885;DHT22;6510;51.362;7.370;2023-02-18T00:00:19;9.60;99.90
12885;DHT22;6510;51.362;7.370;2023-02-18T00:02:45;9.50;99.90
12885;DHT22;6510;51.362;7.370;2023-02-18T00:05:12;9.50;99.90
12885;DHT22;6510;51.362;7.370;2023-02-18T00:07:40;9.50;99.90
12885;DHT22;6510;51.362;7.370;2023-02-18T00:10:08;9.50;99.90
12885;DHT22;6510;51.362;7.370;2023-02-18T00:12:34;9.50;99.90
12885;DHT22;6510;51.362;7.370;2023-02-18T00:15:00;9.50;99.90
12885;DHT22;6510;51.362;7.370;2023-02-18T00:17:27;9.50;99.90
12885;DHT22;6510;51.362;7.370;2023-02-18T00:19:52;9.40;99.90
12885;DHT22;6510;51.362;7.370;2023-02-18T00:22:18;9.40;99.90
12885;DHT22;6510;51.362;7.370;2023-02-18T00:24:44;9.40;99.90
12885;DHT22;6510;51.362;7.370;2023-02-18T00:27:09;9.40;99.90
12885;DHT22;6510;51.362;7.370;2023-02-18T00:29:35;9.40;99.90
12885;DHT22;6510;51.362;7.370;2023-02-18T00:32:00;9.30;99.90
12885;DHT22;6510;51.362;7.370;2023-02-18T00:34:26;9.30;99.90
12885;DHT22;6510;51.362;7.370;2023-02-18T00:36:52;9.30;99.90
12885;DHT22;6510;51.362;7.370;2023-02-18T00:39:17;9.30;99.90
12885;DHT22;6510;51.362;7.370;2023-02-18T00:41:43;9.30;99.90
12885;DHT22;6510;51.362;7.370;2023-02-18T00:44:10;9.30;99.90
12885;DHT22;6510;51.362;7.370;2023-02-18T00:46:36;9.20;99.90
12885;DHT22;6510;51.362;7.370;2023-02-18T00:49:03;9.20;99.90
12885;DHT22;6510;51.362;7.370;2023-02-18T00:51:30;9.30;99.90
12885;DHT22;6510;51.362;7.370;2023-02-18T00:53:56;9.20;99.90
12885;DHT22;6510;51.362;7.370;2023-02-18T00:56:22;9.20;99.90
12885;DHT22;6510;51.362;7.370;2023-02-18T00:58:48;9.30;99.90
12885;DHT22;6510;51.362;7.370;2023-02-18T01:01:15;9.30;99.90
12885;DHT22;6510;51.362;7.370;2023-02-18T01:03:41;9.30;99.90
12885;DHT22;6510;51.362;7.370;2023-02-18T01:06:08;9.20;99.90
12885;DHT22;6510;51.362;7.370;2023-02-18T01:08:34;9.30;99.90
12885;DHT22;6510;51.362;7.370;2023-02-18T01:11:00;9.30;99.90
12885;DHT22;6510;51.362;7.370;2023-02-18T01:13:27;9.30;99.90
12885;DHT22;6510;51.362;7.370;2023-02-18T01:15:53;9.20;99.90
12885;DHT22;6510;51.362;7.370;2023-02-18T01:18:20;9.20;99.90
12885;DHT22;6510;51.362;7.370;2023-02-18T01:20:46;9.20;99.90
12885;DHT22;6510;51.362;7.370;2023-02-18T01:23:13;9.20;99.90
12885;DHT22;6510;51.362;7.370;2023-02-18T01:25:39;9.20;99.90
12885;DHT22;6510;51.362;7.370;2023-02-18T01:28:06;9.20;99.90
12885;DHT22;6510;51.362;7.370;2023-02-18T01:30:32;9.20;99.90
12885;DHT22;6510;51.362;7.370;2023-02-18T01:32:58;9.10;99.90
12885;DHT22;6510;51.362;7.370;2023-02-18T01:35:23;9.20;99.90
12885;DHT22;6510;51.362;7.370;2023-02-18T01:37:50;9.10;99.90
12885;DHT22;6510;51.362;7.370;2023-02-18T01:40:25;9.20;99.90
12885;DHT22;6510;51.362;7.370;2023-02-18T01:42:51;9.20;99.90
12885;DHT22;6510;51.362;7.370;2023-02-18T01:48:20;9.20;99.90
12885;DHT22;6510;51.362;7.370;2023-02-18T01:53:37;9.20;99.90
12885;DHT22;6510;51.362;7.370;2023-02-18T01:56:07;9.10;99.90
12885;DHT22;6510;51.362;7.370;2023-02-18T01:58:34;9.10;99.90
12885;DHT22;6510;51.362;7.370;2023-02-18T02:01:01;9.20;99.90
12885;DHT22;6510;51.362;7.370;2023-02-18T02:03:28;9.20;99.90
12885;DHT22;6510;51.362;7.370;2023-02-18T02:05:54;9.10;99.90
12885;DHT22;6510;51.362;7.370;2023-02-18T02:08:20;9.10;99.90
12885;DHT22;6510;51.362;7.370;2023-02-18T02:11:23;9.10;99.90
12885;DHT22;6510;51.362;7.370;2023-02-18T02:14:00;9.10;99.90
12885;DHT22;6510;51.362;7.370;2023-02-18T02:16:39;9.10;99.90
12885;DHT22;6510;51.362;7.370;2023-02-18T02:25:02;9.10;99.90
12885;DHT22;6510;51.362;7.370;2023-02-18T02:27:32;9.10;99.90
12885;DHT22;6510;51.362;7.370;2023-02-18T02:38:53;9.20;99.90
12885;DHT22;6510;51.362;7.370;2023-02-18T02:41:45;9.20;99.90
12885;DHT22;6510;51.362;7.370;2023-02-18T02:44:24;9.10;99.90
12885;DHT22;6510;51.362;7.370;2023-02-18T02:47:00;9.20;99.90
12885;DHT22;6510;51.362;7.370;2023-02-18T02:52:32;9.20;99.90
12885;DHT22;6510;51.362;7.370;2023-02-18T02:54:58;9.10;99.90
12885;DHT22;6510;51.362;7.370;2023-02-18T02:59:54;9.10;99.90
12885;DHT22;6510;51.362;7.370;2023-02-18T03:02:29;9.10;99.90
12885;DHT22;6510;51.362;7.370;2023-02-18T03:07:55;9.10;99.90
12885;DHT22;6510;51.362;7.370;2023-02-18T03:18:39;9.10;99.90
12885;DHT22;6510;51.362;7.370;2023-02-18T03:21:08;9.20;99.90
12885;DHT22;6510;51.362;7.370;2023-02-18T03:23:52;9.10;99.90
12885;DHT22;6510;51.362;7.370;2023-02-18T03:26:20;9.10;99.90
12885;DHT22;6510;51.362;7.370;2023-02-18T03:28:48;9.20;99.90
12885;DHT22;6510;51.362;7.370;2023-02-18T03:31:18;9.10;99.90
12885;DHT22;6510;51.362;7.370;2023-02-18T03:33:50;9.10;99.90
12885;DHT22;6510;51.362;7.370;2023-02-18T03:36:18;9.10;99.90
12885;DHT22;6510;51.362;7.370;2023-02-18T03:38:59;9.10;99.90
12885;DHT22;6510;51.362;7.370;2023-02-18T03:41:26;9.10;99.90
12885;DHT22;6510;51.362;7.370;2023-02-18T03:43:53;9.10;99.90
12885;DHT22;6510;51.362;7.370;2023-02-18T03:46:20;9.10;99.90
12885;DHT22;6510;51.362;7.370;2023-02-18T03:48:46;9.10;99.90
12885;DHT22;6510;51.362;7.370;2023-02-18T03:51:12;9.10;99.90
12885;DHT22;6510;51.362;7.370;2023-02-18T03:53:37;9.10;99.90
12885;DHT22;6510;51.362;7.370;2023-02-18T03:56:03;9.10;99.90
12885;DHT22;6510;51.362;7.370;2023-02-18T03:58:29;9.10;99.90
12885;DHT22;6510;51.362;7.370;2023-02-18T04:00:55;9.10;99.90
12885;DHT22;6510;51.362;7.370;2023-02-18T04:03:20;9.10;99.90
12885;DHT22;6510;51.362;7.370;2023-02-18T04:05:46;9.10;99.90
12885;DHT22;6510;51.362;7.370;2023-02-18T04:08:12;9.10;99.90
12885;DHT22;6510;51.362;7.370;2023-02-18T04:10:38;9.10;99.90
12885;DHT22;6510;51.362;7.370;2023-02-18T04:13:03;9.10;99.90
12885;DHT22;6510;51.362;7.370;2023-02-18T04:15:29;9.10;99.90
12885;DHT22;6510;51.362;7.370;2023-02-18T04:17:55;9.10;99.90
12885;DHT22;6510;51.362;7.370;2023-02-18T04:20:21;9.10;99.90
12885;DHT22;6510;51.362;7.370;2023-02-18T04:22:47;9.20;99.90
12885;DHT22;6510;51.362;7.370;2023-02-18T04:25:13;9.10;99.90
12885;DHT22;6510;51.362;7.370;2023-02-18T04:27:38;9.20;99.90
12885;DHT22;6510;51.362;7.370;2023-02-18T04:30:06;9.20;99.90
12885;DHT22;6510;51.362;7.370;2023-02-18T04:32:32;9.10;99.90
12885;DHT22;6510;51.362;7.370;2023-02-18T04:34:57;9.10;99.90
12885;DHT22;6510;51.362;7.370;2023-02-18T04:37:23;9.10;99.90
12885;DHT22;6510;51.362;7.370;2023-02-18T04:39:49;9.20;99.90
12885;DHT22;6510;51.362;7.370;2023-02-18T04:42:14;9.10;99.90
12885;DHT22;6510;51.362;7.370;2023-02-18T04:44:40;9.20;99.90
12885;DHT22;6510;51.362;7.370;2023-02-18T04:47:06;9.20;99.90
12885;DHT22;6510;51.362;7.370;2023-02-18T04:49:32;9.20;99.90
12885;DHT22;6510;51.362;7.370;2023-02-18T04:51:57;9.10;99.90
12885;DHT22;6510;51.362;7.370;2023-02-18T04:54:23;9.10;99.90
12885;DHT22;6510;51.362;7.370;2023-02-18T04:56:49;9.10;99.90
12885;DHT22;6510;51.362;7.370;2023-02-18T04:59:15;9.10;99.90
12885;DHT22;6510;51.362;7.370;2023-02-18T05:01:41;9.10;99.90
12885;DHT22;6510;51.362;7.370;2023-02-18T05:04:07;9.10;99.90
12885;DHT22;6510;51.362;7.370;2023-02-18T05:06:32;9.10;99.90
12885;DHT22;6510;51.362;7.370;2023-02-18T05:08:58;9.10;99.90
12885;DHT22;6510;51.362;7.370;2023-02-18T05:11:24;9.10;99.90
12885;DHT22;6510;51.362;7.370;2023-02-18T05:13:49;9.10;99.90
12885;DHT22;6510;51.362;7.370;2023-02-18T05:16:15;9.10;99.90
12885;DHT22;6510;51.362;7.370;2023-02-18T05:18:41;9.10;99.90
12885;DHT22;6510;51.362;7.370;2023-02-18T05:21:07;9.10;99.90
12885;DHT22;6510;51.362;7.370;2023-02-18T05:23:32;9.10;99.90
12885;DHT22;6510;51.362;7.370;2023-02-18T05:25:58;9.10;99.90
12885;DHT22;6510;51.362;7.370;2023-02-18T05:28:24;9.10;99.90
12885;DHT22;6510;51.362;7.370;2023-02-18T05:30:50;9.00;99.90
12885;DHT22;6510;51.362;7.370;2023-02-18T05:33:16;9.00;99.90
12885;DHT22;6510;51.362;7.370;2023-02-18T05:35:41;9.00;99.90
12885;DHT22;6510;51.362;7.370;2023-02-18T05:38:07;9.00;99.90
12885;DHT22;6510;51.362;7.370;2023-02-18T05:40:34;9.00;99.90
12885;DHT22;6510;51.362;7.370;2023-02-18T05:43:00;9.00;99.90
12885;DHT22;6510;51.362;7.370;2023-02-18T05:45:25;9.00;99.90
12885;DHT22;6510;51.362;7.370;2023-02-18T05:47:51;9.00;99.90
12885;DHT22;6510;51.362;7.370;2023-02-18T05:50:16;9.00;99.90
12885;DHT22;6510;51.362;7.370;2023-02-18T05:52:42;9.00;99.90
12885;DHT22;6510;51.362;7.370;2023-02-18T05:55:08;9.00;99.90
12885;DHT22;6510;51.362;7.370;2023-02-18T05:57:33;9.00;99.90
12885;DHT22;6510;51.362;7.370;2023-02-18T05:59:59;9.00;99.90
12885;DHT22;6510;51.362;7.370;2023-02-18T06:02:25;9.00;99.90
12885;DHT22;6510;51.362;7.370;2023-02-18T06:04:50;9.00;99.90
12885;DHT22;6510;51.362;7.370;2023-02-18T06:07:16;9.00;99.90
12885;DHT22;6510;51.362;7.370;2023-02-18T06:09:42;8.90;99.90
12885;DHT22;6510;51.362;7.370;2023-02-18T06:12:08;9.00;99.90
12885;DHT22;6510;51.362;7.370;2023-02-18T06:14:33;9.00;99.90
12885;DHT22;6510;51.362;7.370;2023-02-18T06:16:59;8.90;99.90
12885;DHT22;6510;51.362;7.370;2023-02-18T06:19:25;8.90;99.90
12885;DHT22;6510;51.362;7.370;2023-02-18T06:21:50;8.90;99.90
12885;DHT22;6510;51.362;7.370;2023-02-18T06:24:16;8.90;99.90
12885;DHT22;6510;51.362;7.370;2023-02-18T06:26:41;8.90;99.90
12885;DHT22;6510;51.362;7.370;2023-02-18T06:29:07;8.90;99.90
12885;DHT22;6510;51.362;7.370;2023-02-18T06:31:33;8.90;99.90
12885;DHT22;6510;51.362;7.370;2023-02-18T06:33:58;8.90;99.90
12885;DHT22;6510;51.362;7.370;2023-02-18T06:36:24;8.90;99.90
12885;DHT22;6510;51.362;7.370;2023-02-18T06:38:49;8.90;99.90
12885;DHT22;6510;51.362;7.370;2023-02-18T06:41:16;8.90;99.90
12885;DHT22;6510;51.362;7.370;2023-02-18T06:43:41;8.90;99.90
12885;DHT22;6510;51.362;7.370;2023-02-18T06:46:07;8.90;99.90
12885;DHT22;6510;51.362;7.370;2023-02-18T06:48:33;8.90;99.90
12885;DHT22;6510;51.362;7.370;2023-02-18T06:50:59;8.90;99.90
12885;DHT22;6510;51.362;7.370;2023-02-18T06:53:24;8.90;99.90
12885;DHT22;6510;51.362;7.370;2023-02-18T06:55:50;8.90;99.90
12885;DHT22;6510;51.362;7.370;2023-02-18T06:58:16;8.90;99.90
12885;DHT22;6510;51.362;7.370;2023-02-18T07:00:42;8.90;99.90
12885;DHT22;6510;51.362;7.370;2023-02-18T07:03:09;8.90;99.90
12885;DHT22;6510;51.362;7.370;2023-02-18T07:05:35;8.90;99.90
12885;DHT22;6510;51.362;7.370;2023-02-18T07:08:01;8.90;99.90
12885;DHT22;6510;51.362;7.370;2023-02-18T07:10:26;8.90;99.90
12885;DHT22;6510;51.362;7.370;2023-02-18T07:12:52;8.90;99.90
12885;DHT22;6510;51.362;7.370;2023-02-18T07:15:18;8.90;99.90
12885;DHT22;6510;51.362;7.370;2023-02-18T07:17:51;8.90;99.90
12885;DHT22;6510;51.362;7.370;2023-02-18T07:20:17;8.80;99.90
12885;DHT22;6510;51.362;7.370;2023-02-18T07:22:43;8.80;99.90
12885;DHT22;6510;51.362;7.370;2023-02-18T07:25:08;8.80;99.90
12885;DHT22;6510;51.362;7.370;2023-02-18T07:27:34;8.80;99.90
12885;DHT22;6510;51.362;7.370;2023-02-18T07:30:00;8.80;99.90
12885;DHT22;6510;51.362;7.370;2023-02-18T07:32:25;8.80;99.90
12885;DHT22;6510;51.362;7.370;2023-02-18T07:34:51;8.80;99.90
12885;DHT22;6510;51.362;7.370;2023-02-18T07:37:18;8.80;99.90
12885;DHT22;6510;51.362;7.370;2023-02-18T07:39:48;8.80;99.90
12885;DHT22;6510;51.362;7.370;2023-02-18T07:42:14;8.80;99.90
12885;DHT22;6510;51.362;7.370;2023-02-18T07:44:39;8.70;99.90
12885;DHT22;6510;51.362;7.370;2023-02-18T07:47:06;8.80;99.90
12885;DHT22;6510;51.362;7.370;2023-02-18T07:49:33;8.70;99.90
12885;DHT22;6510;51.362;7.370;2023-02-18T07:52:00;8.70;99.90
12885;DHT22;6510;51.362;7.370;2023-02-18T07:54:26;8.70;99.90
12885;DHT22;6510;51.362;7.370;2023-02-18T07:56:51;8.70;99.90
12885;DHT22;6510;51.362;7.370;2023-02-18T07:59:17;8.70;99.90
12885;DHT22;6510;51.362;7.370;2023-02-18T08:01:43;8.60;99.90
12885;DHT22;6510;51.362;7.370;2023-02-18T08:04:08;8.60;99.90
12885;DHT22;6510;51.362;7.370;2023-02-18T08:06:39;8.60;99.90
12885;DHT22;6510;51.362;7.370;2023-02-18T08:09:06;8.60;99.90
12885;DHT22;6510;51.362;7.370;2023-02-18T08:11:32;8.70;99.90
12885;DHT22;6510;51.362;7.370;2023-02-18T08:13:58;8.60;99.90
12885;DHT22;6510;51.362;7.370;2023-02-18T08:16:24;8.70;99.90
12885;DHT22;6510;51.362;7.370;2023-02-18T08:18:50;8.70;99.90
12885;DHT22;6510;51.362;7.370;2023-02-18T08:21:18;8.70;99.90
12885;DHT22;6510;51.362;7.370;2023-02-18T08:23:44;8.60;99.90
12885;DHT22;6510;51.362;7.370;2023-02-18T08:26:10;8.60;99.90
12885;DHT22;6510;51.362;7.370;2023-02-18T08:28:36;8.60;99.90
12885;DHT22;6510;51.362;7.370;2023-02-18T08:31:02;8.60;99.90
12885;DHT22;6510;51.362;7.370;2023-02-18T08:33:28;8.50;99.90
12885;DHT22;6510;51.362;7.370;2023-02-18T08:35:54;8.50;99.90
12885;DHT22;6510;51.362;7.370;2023-02-18T08:38:21;8.50;99.90
12885;DHT22;6510;51.362;7.370;2023-02-18T08:40:47;8.60;99.90
12885;DHT22;6510;51.362;7.370;2023-02-18T08:43:14;8.60;99.90
12885;DHT22;6510;51.362;7.370;2023-02-18T08:45:42;8.60;99.90
12885;DHT22;6510;51.362;7.370;2023-02-18T08:48:09;8.60;99.90
12885;DHT22;6510;51.362;7.370;2023-02-18T08:50:35;8.60;99.90
12885;DHT22;6510;51.362;7.370;2023-02-18T08:53:01;8.60;99.90
12885;DHT22;6510;51.362;7.370;2023-02-18T08:55:32;8.60;99.90
12885;DHT22;6510;51.362;7.370;2023-02-18T08:57:58;8.50;99.90
12885;DHT22;6510;51.362;7.370;2023-02-18T09:00:24;8.50;99.90
12885;DHT22;6510;51.362;7.370;2023-02-18T09:02:50;8.40;99.90
12885;DHT22;6510;51.362;7.370;2023-02-18T09:05:16;8.50;99.90
12885;DHT22;6510;51.362;7.370;2023-02-18T09:07:42;8.50;99.90
12885;DHT22;6510;51.362;7.370;2023-02-18T09:10:09;8.50;99.90
12885;DHT22;6510;51.362;7.370;2023-02-18T09:12:34;8.50;99.90
12885;DHT22;6510;51.362;7.370;2023-02-18T09:15:00;8.60;99.90
12885;DHT22;6510;51.362;7.370;2023-02-18T09:17:26;8.50;99.90
12885;DHT22;6510;51.362;7.370;2023-02-18T09:19:52;8.50;99.90
12885;DHT22;6510;51.362;7.370;2023-02-18T09:22:18;8.40;99.90
12885;DHT22;6510;51.362;7.370;2023-02-18T09:24:44;8.40;99.90
12885;DHT22;6510;51.362;7.370;2023-02-18T09:27:10;8.30;99.90
12885;DHT22;6510;51.362;7.370;2023-02-18T09:29:39;8.30;99.90
12885;DHT22;6510;51.362;7.370;2023-02-18T09:32:06;8.30;99.90
12885;DHT22;6510;51.362;7.370;2023-02-18T09:34:33;8.20;99.90
12885;DHT22;6510;51.362;7.370;2023-02-18T09:36:59;8.10;99.90
12885;DHT22;6510;51.362;7.370;2023-02-18T09:39:24;8.10;99.90
12885;DHT22;6510;51.362;7.370;2023-02-18T09:47:15;8.10;99.90
12885;DHT22;6510;51.362;7.370;2023-02-18T09:49:53;8.10;99.90
12885;DHT22;6510;51.362;7.370;2023-02-18T09:52:27;8.20;99.90
12885;DHT22;6510;51.362;7.370;2023-02-18T09:54:53;8.20;99.90
12885;DHT22;6510;51.362;7.370;2023-02-18T09:57:28;8.20;99.90
12885;DHT22;6510;51.362;7.370;2023-02-18T10:00:00;8.20;99.90
12885;DHT22;6510;51.362;7.370;2023-02-18T10:02:29;8.20;99.90
12885;DHT22;6510;51.362;7.370;2023-02-18T10:04:56;8.20;99.90
12885;DHT22;6510;51.362;7.370;2023-02-18T10:07:29;8.10;99.90
12885;DHT22;6510;51.362;7.370;2023-02-18T10:09:58;8.10;99.90
12885;DHT22;6510;51.362;7.370;2023-02-18T10:12:26;8.10;99.90
12885;DHT22;6510;51.362;7.370;2023-02-18T10:14:54;8.10;99.90
12885;DHT22;6510;51.362;7.370;2023-02-18T10:17:23;8.10;99.90
12885;DHT22;6510;51.362;7.370;2023-02-18T10:19:50;8.10;99.90
12885;DHT22;6510;51.362;7.370;2023-02-18T10:22:18;8.20;99.90
12885;DHT22;6510;51.362;7.370;2023-02-18T10:27:23;8.10;99.90
12885;DHT22;6510;51.362;7.370;2023-02-18T10:29:50;8.00;99.90
12885;DHT22;6510;51.362;7.370;2023-02-18T10:32:22;8.10;99.90
12885;DHT22;6510;51.362;7.370;2023-02-18T10:38:19;8.00;99.90
12885;DHT22;6510;51.362;7.370;2023-02-18T10:41:05;8.00;99.90
12885;DHT22;6510;51.362;7.370;2023-02-18T10:46:40;8.10;99.90
12885;DHT22;6510;51.362;7.370;2023-02-18T10:51:53;8.00;99.90
12885;DHT22;6510;51.362;7.370;2023-02-18T10:54:25;8.00;99.90
12885;DHT22;6510;51.362;7.370;2023-02-18T10:56:52;8.10;99.90
12885;DHT22;6510;51.362;7.370;2023-02-18T11:01:56;8.20;99.90
12885;DHT22;6510;51.362;7.370;2023-02-18T11:04:27;8.10;99.90
12885;DHT22;6510;51.362;7.370;2023-02-18T11:07:04;8.20;99.90
12885;DHT22;6510;51.362;7.370;2023-02-18T11:09:54;8.30;99.90
12885;DHT22;6510;51.362;7.370;2023-02-18T11:12:42;8.20;99.90
12885;DHT22;6510;51.362;7.370;2023-02-18T11:17:35;8.10;99.90
12885;DHT22;6510;51.362;7.370;2023-02-18T11:22:45;8.10;99.90
12885;DHT22;6510;51.362;7.370;2023-02-18T11:25:25;8.20;99.90
12885;DHT22;6510;51.362;7.370;2023-02-18T11:27:54;8.20;99.90
12885;DHT22;6510;51.362;7.370;2023-02-18T11:32:58;8.20;99.90
12885;DHT22;6510;51.362;7.370;2023-02-18T11:35:27;8.40;99.90
12885;DHT22;6510;51.362;7.370;2023-02-18T11:37:58;8.40;99.90
12885;DHT22;6510;51.362;7.370;2023-02-18T11:40:28;8.40;99.90
12885;DHT22;6510;51.362;7.370;2023-02-18T11:43:06;8.40;99.90
12885;DHT22;6510;51.362;7.370;2023-02-18T11:45:34;8.40;99.90
12885;DHT22;6510;51.362;7.370;2023-02-18T11:50:39;8.40;99.90
12885;DHT22;6510;51.362;7.370;2023-02-18T11:55:54;8.60;99.90
12885;DHT22;6510;51.362;7.370;2023-02-18T11:58:21;8.50;99.90
12885;DHT22;6510;51.362;7.370;2023-02-18T12:00:48;8.50;99.90
12885;DHT22;6510;51.362;7.370;2023-02-18T12:06:03;8.40;99.90
12885;DHT22;6510;51.362;7.370;2023-02-18T12:08:34;8.50;99.90
12885;DHT22;6510;51.362;7.370;2023-02-18T12:11:13;8.40;99.90
12885;DHT22;6510;51.362;7.370;2023-02-18T12:13:51;8.50;99.90
12885;DHT22;6510;51.362;7.370;2023-02-18T12:22:04;8.50;99.90
12885;DHT22;6510;51.362;7.370;2023-02-18T12:45:04;8.50;99.90
12885;DHT22;6510;51.362;7.370;2023-02-18T12:55:37;8.70;99.90
12885;DHT22;6510;51.362;7.370;2023-02-18T13:01:09;8.70;99.90
12885;DHT22;6510;51.362;7.370;2023-02-18T13:04:07;8.70;99.90
12885;DHT22;6510;51.362;7.370;2023-02-18T13:12:29;8.60;99.90
12885;DHT22;6510;51.362;7.370;2023-02-18T13:18:27;8.60;99.90
12885;DHT22;6510;51.362;7.370;2023-02-18T13:20:58;8.60;99.90
12885;DHT22;6510;51.362;7.370;2023-02-18T13:23:31;8.50;99.90
12885;DHT22;6510;51.362;7.370;2023-02-18T13:26:01;8.60;99.90
12885;DHT22;6510;51.362;7.370;2023-02-18T13:31:24;8.70;99.90
12885;DHT22;6510;51.362;7.370;2023-02-18T13:41:27;8.70;99.90
12885;DHT22;6510;51.362;7.370;2023-02-18T13:43:53;8.80;99.90
12885;DHT22;6510;51.362;7.370;2023-02-18T13:46:21;8.70;99.90
12885;DHT22;6510;51.362;7.370;2023-02-18T13:51:40;8.80;99.90
12885;DHT22;6510;51.362;7.370;2023-02-18T13:57:00;8.80;99.90
12885;DHT22;6510;51.362;7.370;2023-02-18T13:59:40;8.80;99.90
12885;DHT22;6510;51.362;7.370;2023-02-18T14:09:48;8.80;99.90
12885;DHT22;6510;51.362;7.370;2023-02-18T14:12:40;8.80;99.90
12885;DHT22;6510;51.362;7.370;2023-02-18T14:17:42;8.80;99.90
12885;DHT22;6510;51.362;7.370;2023-02-18T14:22:49;8.80;99.90
12885;DHT22;6510;51.362;7.370;2023-02-18T14:25:21;8.80;99.90
12885;DHT22;6510;51.362;7.370;2023-02-18T14:27:52;8.80;99.90
12885;DHT22;6510;51.362;7.370;2023-02-18T14:32:50;8.80;99.90
12885;DHT22;6510;51.362;7.370;2023-02-18T14:35:25;8.80;99.90
12885;DHT22;6510;51.362;7.370;2023-02-18T14:40:54;8.80;99.90
12885;DHT22;6510;51.362;7.370;2023-02-18T14:46:10;8.80;99.90
12885;DHT22;6510;51.362;7.370;2023-02-18T14:48:51;8.90;99.90
12885;DHT22;6510;51.362;7.370;2023-02-18T14:51:24;8.90;99.90
12885;DHT22;6510;51.362;7.370;2023-02-18T14:53:50;8.90;99.90
12885;DHT22;6510;51.362;7.370;2023-02-18T14:56:19;9.00;99.90
12885;DHT22;6510;51.362;7.370;2023-02-18T14:58:52;9.00;99.90
12885;DHT22;6510;51.362;7.370;2023-02-18T15:01:28;9.00;99.90
12885;DHT22;6510;51.362;7.370;2023-02-18T15:03:55;9.00;99.90
12885;DHT22;6510;51.362;7.370;2023-02-18T15:08:54;9.00;99.90
12885;DHT22;6510;51.362;7.370;2023-02-18T15:11:39;9.00;99.90
12885;DHT22;6510;51.362;7.370;2023-02-18T15:14:15;9.00;99.90
12885;DHT22;6510;51.362;7.370;2023-02-18T15:16:43;9.00;99.90
12885;DHT22;6510;51.362;7.370;2023-02-18T15:19:20;9.00;99.90
12885;DHT22;6510;51.362;7.370;2023-02-18T15:21:49;9.00;99.90
12885;DHT22;6510;51.362;7.370;2023-02-18T15:26:47;9.00;99.90
12885;DHT22;6510;51.362;7.370;2023-02-18T15:29:35;9.00;99.90
12885;DHT22;6510;51.362;7.370;2023-02-18T15:34:43;9.00;99.90
12885;DHT22;6510;51.362;7.370;2023-02-18T15:37:12;9.00;99.90
12885;DHT22;6510;51.362;7.370;2023-02-18T15:39:41;9.00;99.90
12885;DHT22;6510;51.362;7.370;2023-02-18T15:42:28;9.00;99.90
12885;DHT22;6510;51.362;7.370;2023-02-18T15:44:57;9.00;99.90
12885;DHT22;6510;51.362;7.370;2023-02-18T15:47:23;9.00;99.90
12885;DHT22;6510;51.362;7.370;2023-02-18T15:49:58;9.00;99.90
12885;DHT22;6510;51.362;7.370;2023-02-18T15:52:31;9.00;99.90
12885;DHT22;6510;51.362;7.370;2023-02-18T15:55:08;9.00;99.90
12885;DHT22;6510;51.362;7.370;2023-02-18T15:57:36;9.00;99.90
12885;DHT22;6510;51.362;7.370;2023-02-18T16:02:55;9.00;99.90
12885;DHT22;6510;51.362;7.370;2023-02-18T16:05:27;8.90;99.90
12885;DHT22;6510;51.362;7.370;2023-02-18T16:08:05;8.90;99.90
12885;DHT22;6510;51.362;7.370;2023-02-18T16:13:01;8.90;99.90
12885;DHT22;6510;51.362;7.370;2023-02-18T16:15:37;8.90;99.90
12885;DHT22;6510;51.362;7.370;2023-02-18T16:18:04;8.90;99.90
12885;DHT22;6510;51.362;7.370;2023-02-18T16:20:32;8.90;99.90
12885;DHT22;6510;51.362;7.370;2023-02-18T16:23:03;8.90;99.90
12885;DHT22;6510;51.362;7.370;2023-02-18T16:25:42;8.90;99.90
12885;DHT22;6510;51.362;7.370;2023-02-18T16:28:31;8.80;99.90
12885;DHT22;6510;51.362;7.370;2023-02-18T16:30:57;8.90;99.90
12885;DHT22;6510;51.362;7.370;2023-02-18T16:33:23;8.80;99.90
12885;DHT22;6510;51.362;7.370;2023-02-18T16:35:48;8.90;99.90
12885;DHT22;6510;51.362;7.370;2023-02-18T16:38:20;8.80;99.90
12885;DHT22;6510;51.362;7.370;2023-02-18T16:40:46;8.90;99.90
12885;DHT22;6510;51.362;7.370;2023-02-18T16:43:32;8.80;99.90
12885;DHT22;6510;51.362;7.370;2023-02-18T16:46:05;8.80;99.90
12885;DHT22;6510;51.362;7.370;2023-02-18T16:48:35;8.90;99.90
12885;DHT22;6510;51.362;7.370;2023-02-18T16:51:08;8.90;99.90
12885;DHT22;6510;51.362;7.370;2023-02-18T16:53:45;8.80;99.90
12885;DHT22;6510;51.362;7.370;2023-02-18T16:56:17;8.80;99.90
12885;DHT22;6510;51.362;7.370;2023-02-18T16:58:43;8.90;99.90
12885;DHT22;6510;51.362;7.370;2023-02-18T17:03:46;8.80;99.90
12885;DHT22;6510;51.362;7.370;2023-02-18T17:06:12;8.80;99.90
12885;DHT22;6510;51.362;7.370;2023-02-18T17:08:38;8.80;99.90
12885;DHT22;6510;51.362;7.370;2023-02-18T17:11:34;8.80;99.90
12885;DHT22;6510;51.362;7.370;2023-02-18T17:14:00;8.80;99.90
12885;DHT22;6510;51.362;7.370;2023-02-18T17:16:29;8.80;99.90
12885;DHT22;6510;51.362;7.370;2023-02-18T17:18:55;8.90;99.90
12885;DHT22;6510;51.362;7.370;2023-02-18T17:21:23;8.80;99.90
12885;DHT22;6510;51.362;7.370;2023-02-18T17:23:51;8.80;99.90
12885;DHT22;6510;51.362;7.370;2023-02-18T17:26:18;8.80;99.90
12885;DHT22;6510;51.362;7.370;2023-02-18T17:28:55;8.80;99.90
12885;DHT22;6510;51.362;7.370;2023-02-18T17:31:34;8.80;99.90
12885;DHT22;6510;51.362;7.370;2023-02-18T17:34:03;8.80;99.90
12885;DHT22;6510;51.362;7.370;2023-02-18T17:36:30;8.80;99.90
12885;DHT22;6510;51.362;7.370;2023-02-18T17:38:55;8.80;99.90
12885;DHT22;6510;51.362;7.370;2023-02-18T17:41:25;8.80;99.90
12885;DHT22;6510;51.362;7.370;2023-02-18T17:43:51;8.80;99.90
12885;DHT22;6510;51.362;7.370;2023-02-18T17:46:20;8.80;99.90
12885;DHT22;6510;51.362;7.370;2023-02-18T17:48:46;8.80;99.90
12885;DHT22;6510;51.362;7.370;2023-02-18T17:51:24;8.80;99.90
12885;DHT22;6510;51.362;7.370;2023-02-18T17:53:50;8.80;99.90
12885;DHT22;6510;51.362;7.370;2023-02-18T17:56:15;8.80;99.90
12885;DHT22;6510;51.362;7.370;2023-02-18T17:58:41;8.90;99.90
12885;DHT22;6510;51.362;7.370;2023-02-18T18:01:09;8.90;99.90
12885;DHT22;6510;51.362;7.370;2023-02-18T18:03:35;8.80;99.90
12885;DHT22;6510;51.362;7.370;2023-02-18T18:06:01;8.90;99.90
12885;DHT22;6510;51.362;7.370;2023-02-18T18:08:29;8.90;99.90
12885;DHT22;6510;51.362;7.370;2023-02-18T18:10:58;8.90;99.90
12885;DHT22;6510;51.362;7.370;2023-02-18T18:13:29;8.90;99.90
12885;DHT22;6510;51.362;7.370;2023-02-18T18:15:57;8.90;99.90
12885;DHT22;6510;51.362;7.370;2023-02-18T18:18:23;8.90;99.90
12885;DHT22;6510;51.362;7.370;2023-02-18T18:20:55;8.90;99.90
12885;DHT22;6510;51.362;7.370;2023-02-18T18:23:21;8.90;99.90
12885;DHT22;6510;51.362;7.370;2023-02-18T18:25:52;8.90;99.90
12885;DHT22;6510;51.362;7.370;2023-02-18T18:28:19;8.90;99.90
12885;DHT22;6510;51.362;7.370;2023-02-18T18:30:47;8.90;99.90
12885;DHT22;6510;51.362;7.370;2023-02-18T18:33:26;8.90;99.90
12885;DHT22;6510;51.362;7.370;2023-02-18T18:35:53;8.90;99.90
12885;DHT22;6510;51.362;7.370;2023-02-18T18:38:21;8.90;99.90
12885;DHT22;6510;51.362;7.370;2023-02-18T18:40:48;9.00;99.90
12885;DHT22;6510;51.362;7.370;2023-02-18T18:43:18;8.90;99.90
12885;DHT22;6510;51.362;7.370;2023-02-18T18:45:44;9.00;99.90
12885;DHT22;6510;51.362;7.370;2023-02-18T18:48:10;9.00;99.90
12885;DHT22;6510;51.362;7.370;2023-02-18T18:50:36;8.90;99.90
12885;DHT22;6510;51.362;7.370;2023-02-18T18:53:04;8.90;99.90
12885;DHT22;6510;51.362;7.370;2023-02-18T18:55:37;9.00;99.90
12885;DHT22;6510;51.362;7.370;2023-02-18T18:58:05;9.00;99.90
12885;DHT22;6510;51.362;7.370;2023-02-18T19:00:34;8.90;99.90
12885;DHT22;6510;51.362;7.370;2023-02-18T19:03:00;8.90;99.90